createdAt,value
2018-08-16T00:00:55.461Z,22.00
2018-08-16T00:03:25.347Z,22.00
2018-08-16T00:05:58.788Z,22.00
2018-08-16T00:08:28.763Z,22.00
2018-08-16T00:10:59.118Z,22.00
2018-08-16T00:13:30.495Z,22.00
2018-08-16T00:16:01.597Z,22.00
2018-08-16T00:18:32.176Z,22.10
2018-08-16T00:21:02.707Z,22.10
2018-08-16T00:23:32.760Z,22.10
2018-08-16T00:26:04.096Z,22.10
2018-08-16T00:28:35.765Z,22.10
2018-08-16T00:31:06.252Z,22.10
2018-08-16T00:33:36.145Z,22.10
2018-08-16T00:36:06.360Z,22.10
2018-08-16T00:38:36.432Z,22.10
2018-08-16T00:41:06.300Z,22.10
2018-08-16T00:43:37.091Z,22.10
2018-08-16T00:46:07.848Z,22.20
2018-08-16T00:48:37.977Z,22.10
2018-08-16T00:51:07.814Z,22.10
2018-08-16T00:53:39.091Z,22.10
2018-08-16T00:56:08.873Z,22.00
2018-08-16T00:58:39.556Z,21.90
2018-08-16T01:01:09.585Z,21.90
2018-08-16T01:03:39.468Z,21.80
2018-08-16T01:06:09.269Z,21.80
2018-08-16T01:08:39.510Z,21.70
2018-08-16T01:11:12.291Z,21.70
2018-08-16T01:13:42.135Z,21.70
2018-08-16T01:16:12.224Z,21.70
2018-08-16T01:18:42.240Z,21.70
2018-08-16T01:21:12.316Z,21.70
2018-08-16T01:23:42.272Z,21.70
2018-08-16T01:26:12.654Z,21.70
2018-08-16T01:28:44.024Z,21.70
2018-08-16T01:31:14.099Z,21.70
2018-08-16T01:33:43.954Z,21.60
2018-08-16T01:36:14.560Z,21.60
2018-08-16T01:38:47.506Z,21.50
2018-08-16T01:41:18.063Z,21.50
2018-08-16T01:43:49.321Z,21.40
2018-08-16T01:46:19.812Z,21.40
2018-08-16T01:48:50.191Z,21.40
2018-08-16T01:51:20.679Z,21.30
2018-08-16T01:53:51.667Z,21.20
2018-08-16T01:56:22.028Z,21.20
2018-08-16T01:58:51.948Z,21.20
2018-08-16T02:01:23.269Z,21.10
2018-08-16T02:03:53.661Z,21.10
2018-08-16T02:06:25.593Z,21.10
2018-08-16T02:08:56.324Z,21.00
2018-08-16T02:11:29.245Z,21.00
2018-08-16T02:13:59.059Z,21.00
2018-08-16T02:16:29.534Z,21.00
2018-08-16T02:18:59.825Z,21.00
2018-08-16T02:21:31.030Z,21.00
2018-08-16T02:24:01.432Z,21.00
2018-08-16T02:26:31.327Z,21.00
2018-08-16T02:29:01.368Z,21.00
2018-08-16T02:31:31.550Z,21.00
2018-08-16T02:34:01.399Z,21.00
2018-08-16T02:36:31.274Z,21.00
2018-08-16T02:39:01.436Z,21.00
2018-08-16T02:41:31.321Z,21.00
2018-08-16T02:44:02.205Z,21.00
2018-08-16T02:46:32.832Z,21.00
2018-08-16T02:49:02.681Z,21.00
2018-08-16T02:51:32.533Z,21.00
2018-08-16T02:54:02.377Z,21.00
2018-08-16T02:56:32.183Z,21.00
2018-08-16T02:59:02.074Z,21.00
2018-08-16T03:01:32.260Z,21.00
2018-08-16T03:04:02.694Z,21.00
2018-08-16T03:06:32.592Z,21.00
2018-08-16T03:09:04.368Z,21.00
2018-08-16T03:11:34.137Z,21.00
2018-08-16T03:14:04.388Z,21.00
2018-08-16T03:16:34.461Z,21.00
2018-08-16T03:19:05.449Z,21.00
2018-08-16T03:21:35.822Z,21.00
2018-08-16T03:24:06.300Z,21.00
2018-08-16T03:26:36.839Z,21.10
2018-08-16T03:29:07.232Z,21.10
2018-08-16T03:31:38.335Z,21.10
2018-08-16T03:34:08.850Z,21.10
2018-08-16T03:36:38.922Z,21.00
2018-08-16T03:39:10.446Z,21.10
2018-08-16T03:41:40.447Z,21.00
2018-08-16T03:44:10.270Z,21.00
2018-08-16T03:46:40.080Z,21.00
2018-08-16T03:49:10.573Z,21.10
2018-08-16T03:51:40.616Z,21.10
2018-08-16T03:54:11.022Z,21.10
2018-08-16T03:56:41.821Z,21.10
2018-08-16T03:59:11.793Z,21.00
2018-08-16T04:01:42.071Z,21.00
2018-08-16T04:04:13.519Z,21.00
2018-08-16T04:06:44.935Z,20.90
2018-08-16T04:09:14.823Z,20.90
2018-08-16T04:11:45.230Z,20.90
2018-08-16T04:14:15.552Z,20.80
2018-08-16T04:16:46.251Z,20.80
2018-08-16T04:19:16.038Z,20.70
2018-08-16T04:21:45.888Z,20.70
2018-08-16T04:24:17.967Z,20.60
2018-08-16T04:26:47.737Z,20.50
2018-08-16T04:29:17.548Z,20.50
2018-08-16T04:31:47.302Z,20.40
2018-08-16T04:34:17.911Z,20.40
2018-08-16T04:36:47.627Z,20.30
2018-08-16T04:39:17.441Z,20.30
2018-08-16T04:41:47.311Z,20.30
2018-08-16T04:44:17.070Z,20.20
2018-08-16T04:46:47.713Z,20.20
2018-08-16T04:49:17.558Z,20.20
2018-08-16T04:51:47.764Z,20.10
2018-08-16T04:54:18.132Z,20.10
2018-08-16T04:56:48.613Z,20.10
2018-08-16T04:59:19.936Z,20.00
2018-08-16T05:01:50.485Z,20.00
2018-08-16T05:04:20.657Z,20.00
2018-08-16T05:06:50.964Z,20.00
2018-08-16T05:09:27.596Z,20.00
2018-08-16T05:11:57.870Z,20.00
2018-08-16T05:14:27.674Z,20.00
2018-08-16T05:16:57.451Z,20.00
2018-08-16T05:19:27.274Z,20.00
2018-08-16T05:21:57.096Z,20.00
2018-08-16T05:24:28.253Z,20.00
2018-08-16T05:26:58.221Z,20.00
2018-08-16T05:29:28.021Z,20.00
2018-08-16T05:31:57.916Z,20.00
2018-08-16T05:34:27.695Z,20.00
2018-08-16T05:36:57.534Z,20.00
2018-08-16T05:39:27.924Z,19.90
2018-08-16T05:41:58.384Z,19.90
2018-08-16T05:44:35.201Z,19.80
2018-08-16T05:47:11.529Z,19.70
2018-08-16T05:49:41.335Z,19.70
2018-08-16T05:52:11.152Z,19.60
2018-08-16T05:54:40.971Z,19.50
2018-08-16T05:57:11.196Z,19.50
2018-08-16T05:59:43.765Z,19.40
2018-08-16T06:02:13.621Z,19.40
2018-08-16T06:04:43.576Z,19.40
2018-08-16T06:07:13.679Z,19.40
2018-08-16T06:09:44.110Z,19.40
2018-08-16T06:12:13.989Z,19.40
2018-08-16T06:14:43.987Z,19.40
2018-08-16T06:17:14.034Z,19.40
2018-08-16T06:19:43.992Z,19.40
2018-08-16T06:22:13.860Z,19.40
2018-08-16T06:24:45.067Z,19.50
2018-08-16T06:27:15.019Z,19.50
2018-08-16T06:29:44.837Z,19.50
2018-08-16T06:32:15.542Z,19.60
2018-08-16T06:34:46.541Z,19.60
2018-08-16T06:37:17.691Z,19.60
2018-08-16T06:39:49.580Z,19.70
2018-08-16T06:42:20.008Z,19.70
2018-08-16T06:44:50.816Z,19.70
2018-08-16T06:47:21.159Z,19.70
2018-08-16T06:49:52.703Z,19.70
2018-08-16T06:52:23.124Z,19.70
2018-08-16T06:54:55.119Z,19.70
2018-08-16T06:57:24.992Z,19.70
2018-08-16T06:59:58.488Z,19.60
2018-08-16T07:02:29.368Z,19.60
2018-08-16T07:05:00.101Z,19.60
2018-08-16T07:07:36.879Z,19.60
2018-08-16T07:10:11.199Z,19.60
2018-08-16T07:12:42.632Z,19.60
2018-08-16T07:15:15.007Z,19.50
2018-08-16T07:17:45.689Z,19.50
2018-08-16T07:20:18.131Z,19.50
2018-08-16T07:22:47.960Z,19.50
2018-08-16T07:25:18.265Z,19.50
2018-08-16T07:27:48.116Z,19.50
2018-08-16T07:30:17.990Z,19.50
2018-08-16T07:32:48.627Z,19.50
2018-08-16T07:35:18.447Z,19.50
2018-08-16T07:37:48.381Z,19.50
2018-08-16T07:40:19.260Z,19.50
2018-08-16T07:42:49.270Z,19.50
2018-08-16T07:45:19.211Z,19.50
2018-08-16T07:47:49.747Z,19.50
2018-08-16T07:50:21.613Z,19.60
2018-08-16T07:52:54.633Z,19.60
2018-08-16T07:55:25.162Z,19.60
2018-08-16T07:57:55.154Z,19.60
2018-08-16T08:00:25.430Z,19.70
2018-08-16T08:02:55.294Z,19.70
2018-08-16T08:05:26.028Z,19.80
2018-08-16T08:07:56.116Z,19.80
2018-08-16T08:10:26.491Z,19.90
2018-08-16T08:12:57.396Z,19.90
2018-08-16T08:15:28.306Z,20.00
2018-08-16T08:18:00.058Z,20.00
2018-08-16T08:20:31.679Z,20.00
2018-08-16T08:23:02.460Z,20.00
2018-08-16T08:25:32.488Z,20.10
2018-08-16T08:28:03.345Z,20.10
2018-08-16T08:30:34.691Z,20.10
2018-08-16T08:33:06.483Z,20.20
2018-08-16T08:35:36.381Z,20.20
2018-08-16T08:38:17.441Z,20.10
2018-08-16T08:40:49.061Z,20.10
2018-08-16T08:43:35.357Z,20.10
2018-08-16T08:46:06.129Z,20.00
2018-08-16T08:48:38.390Z,20.00
2018-08-16T08:51:08.310Z,19.90
2018-08-16T08:54:52.980Z,19.90
2018-08-16T08:57:39.410Z,19.80
2018-08-16T09:00:09.645Z,19.80
2018-08-16T09:02:40.140Z,19.80
2018-08-16T09:05:10.228Z,19.80
2018-08-16T09:07:41.351Z,19.80
2018-08-16T09:11:24.352Z,19.80
2018-08-16T09:14:11.614Z,19.80
2018-08-16T09:16:43.202Z,19.90
2018-08-16T09:19:13.155Z,19.90
2018-08-16T09:21:44.022Z,20.00
2018-08-16T09:24:15.030Z,20.00
2018-08-16T09:26:46.216Z,19.90
2018-08-16T09:29:37.381Z,19.90
2018-08-16T09:34:24.557Z,19.80
2018-08-16T09:36:57.939Z,19.90
2018-08-16T09:39:29.089Z,19.90
2018-08-16T09:41:58.912Z,19.90
2018-08-16T09:44:29.108Z,19.90
2018-08-16T09:47:16.015Z,19.90
2018-08-16T09:49:54.070Z,19.90
2018-08-16T09:52:23.967Z,19.90
2018-08-16T09:54:53.850Z,20.00
2018-08-16T09:57:23.732Z,20.00
2018-08-16T09:59:53.603Z,20.10
2018-08-16T10:02:23.971Z,20.20
2018-08-16T10:04:53.803Z,20.20
2018-08-16T10:07:25.063Z,20.30
2018-08-16T10:09:55.557Z,20.30
2018-08-16T10:12:25.405Z,20.30
2018-08-16T10:14:55.521Z,20.40
2018-08-16T10:17:25.890Z,20.40
2018-08-16T10:19:58.515Z,20.40
2018-08-16T10:22:28.399Z,20.50
2018-08-16T10:24:58.219Z,20.50
2018-08-16T10:27:28.377Z,20.60
2018-08-16T10:29:58.339Z,20.70
2018-08-16T10:32:28.239Z,20.70
2018-08-16T10:34:58.119Z,20.80
2018-08-16T10:37:30.556Z,20.80
2018-08-16T10:40:00.817Z,20.80
2018-08-16T10:42:31.185Z,20.80
2018-08-16T10:45:01.045Z,20.80
2018-08-16T10:47:31.178Z,20.70
2018-08-16T10:50:01.055Z,20.70
2018-08-16T10:52:30.858Z,20.70
2018-08-16T10:55:02.259Z,20.60
2018-08-16T10:57:32.754Z,20.70
2018-08-16T11:00:04.012Z,20.70
2018-08-16T11:02:33.932Z,20.70
2018-08-16T11:05:05.085Z,20.80
2018-08-16T11:07:35.152Z,20.90
2018-08-16T11:10:06.048Z,20.90
2018-08-16T11:12:36.065Z,20.90
2018-08-16T11:15:06.952Z,20.90
2018-08-16T11:17:37.155Z,20.90
2018-08-16T11:20:07.605Z,20.90
2018-08-16T11:22:37.528Z,20.90
2018-08-16T11:25:07.692Z,20.90
2018-08-16T11:27:37.671Z,20.90
2018-08-16T11:30:07.984Z,20.80
2018-08-16T11:32:37.885Z,20.80
2018-08-16T11:35:07.831Z,20.80
2018-08-16T11:37:37.899Z,20.80
2018-08-16T11:40:08.694Z,20.80
2018-08-16T11:42:38.665Z,20.80
2018-08-16T11:45:09.065Z,20.70
2018-08-16T11:47:38.978Z,20.80
2018-08-16T11:50:09.370Z,20.90
2018-08-16T11:52:39.314Z,21.00
2018-08-16T11:55:09.903Z,21.10
2018-08-16T11:57:39.812Z,21.30
2018-08-16T12:00:09.949Z,21.50
2018-08-16T12:02:39.921Z,21.70
2018-08-16T12:05:09.948Z,21.90
2018-08-16T12:07:39.851Z,22.10
2018-08-16T12:10:09.975Z,22.20
2018-08-16T12:12:40.001Z,22.20
2018-08-16T12:15:10.062Z,22.20
2018-08-16T12:17:40.044Z,22.20
2018-08-16T12:20:10.216Z,22.30
2018-08-16T12:22:40.194Z,22.40
2018-08-16T12:25:10.159Z,22.60
2018-08-16T12:27:40.180Z,22.70
2018-08-16T12:30:10.429Z,22.60
2018-08-16T12:32:40.702Z,22.50
2018-08-16T12:35:10.660Z,22.40
2018-08-16T12:37:40.472Z,22.50
2018-08-16T12:40:10.395Z,22.50
2018-08-16T12:42:40.461Z,22.50
2018-08-16T12:45:10.421Z,22.50
2018-08-16T12:47:40.416Z,22.40
2018-08-16T12:50:10.645Z,22.40
2018-08-16T12:52:41.166Z,22.30
2018-08-16T12:55:11.694Z,22.30
2018-08-16T12:57:41.672Z,22.40
2018-08-16T13:00:15.966Z,22.50
2018-08-16T13:02:47.007Z,22.60
2018-08-16T13:05:17.022Z,22.80
2018-08-16T13:07:48.038Z,22.90
2018-08-16T13:10:18.055Z,23.10
2018-08-16T13:12:47.936Z,23.20
2018-08-16T13:15:17.858Z,23.30
2018-08-16T13:17:47.750Z,23.20
2018-08-16T13:20:17.627Z,23.00
2018-08-16T13:22:47.516Z,22.90
2018-08-16T13:25:17.516Z,22.80
2018-08-16T13:27:47.493Z,22.70
2018-08-16T13:30:17.346Z,22.60
2018-08-16T13:32:47.290Z,22.50
2018-08-16T13:35:17.153Z,22.50
2018-08-16T13:37:47.121Z,22.50
2018-08-16T13:40:18.304Z,22.50
2018-08-16T13:42:48.261Z,22.60
2018-08-16T13:45:18.168Z,22.70
2018-08-16T13:47:48.113Z,22.80
2018-08-16T13:50:19.404Z,22.80
2018-08-16T13:52:49.339Z,22.90
2018-08-16T13:55:19.751Z,23.00
2018-08-16T13:57:50.323Z,23.20
2018-08-16T14:00:20.408Z,23.30
2018-08-16T14:02:50.352Z,23.40
2018-08-16T14:05:20.314Z,23.50
2018-08-16T14:07:50.241Z,23.70
2018-08-16T14:10:20.235Z,23.90
2018-08-16T14:12:50.218Z,24.00
2018-08-16T14:15:20.121Z,24.20
2018-08-16T14:17:49.952Z,24.40
2018-08-16T14:20:19.882Z,24.70
2018-08-16T14:22:49.736Z,25.20
2018-08-16T14:25:19.684Z,25.80
2018-08-16T14:27:49.595Z,26.40
2018-08-16T14:30:19.619Z,27.30
2018-08-16T14:32:49.572Z,28.00
2018-08-16T14:35:19.731Z,27.80
2018-08-16T14:37:49.583Z,27.20
2018-08-16T14:40:19.501Z,27.90
2018-08-16T14:42:49.499Z,29.10
2018-08-16T14:45:19.816Z,29.70
2018-08-16T14:47:49.745Z,30.70
2018-08-16T14:50:20.429Z,31.70
2018-08-16T14:52:50.499Z,32.00
2018-08-16T14:55:20.523Z,32.60
2018-08-16T14:57:50.406Z,32.70
2018-08-16T15:00:20.380Z,32.20
2018-08-16T15:02:56.853Z,31.60
2018-08-16T15:05:26.781Z,30.80
2018-08-16T15:07:57.400Z,30.00
2018-08-16T15:10:28.235Z,29.70
2018-08-16T15:12:58.115Z,30.60
2018-08-16T15:15:28.041Z,30.80
2018-08-16T15:17:58.066Z,30.30
2018-08-16T15:20:27.874Z,30.10
2018-08-16T15:22:57.718Z,29.90
2018-08-16T15:25:27.617Z,29.80
2018-08-16T15:27:57.458Z,29.40
2018-08-16T15:30:27.346Z,29.40
2018-08-16T15:32:57.217Z,29.00
2018-08-16T15:35:27.056Z,28.60
2018-08-16T15:37:56.971Z,28.90
2018-08-16T15:40:26.853Z,28.60
2018-08-16T15:42:56.871Z,28.30
2018-08-16T15:45:27.798Z,27.90
2018-08-16T15:47:57.796Z,27.30
2018-08-16T15:50:28.018Z,26.80
2018-08-16T15:52:57.893Z,26.40
2018-08-16T15:55:27.730Z,26.30
2018-08-16T15:57:57.542Z,26.20
2018-08-16T16:00:28.315Z,26.00
2018-08-16T16:02:58.259Z,25.90
2018-08-16T16:05:28.205Z,26.00
2018-08-16T16:07:58.703Z,26.80
2018-08-16T16:10:29.014Z,27.80
2018-08-16T16:12:59.123Z,28.10
2018-08-16T16:15:29.230Z,27.90
2018-08-16T16:17:59.323Z,27.50
2018-08-16T16:20:29.304Z,27.50
2018-08-16T16:22:59.224Z,27.80
2018-08-16T16:25:29.240Z,27.40
2018-08-16T16:27:59.956Z,26.80
2018-08-16T16:30:29.992Z,26.10
2018-08-16T16:32:59.900Z,25.70
2018-08-16T16:35:29.879Z,25.20
2018-08-16T16:37:59.738Z,24.90
2018-08-16T16:40:29.801Z,24.70
2018-08-16T16:42:59.885Z,25.00
2018-08-16T16:45:29.791Z,25.60
2018-08-16T16:47:59.941Z,26.50
2018-08-16T16:50:29.900Z,26.80
2018-08-16T16:53:00.715Z,27.10
2018-08-16T16:55:32.175Z,26.90
2018-08-16T16:58:02.878Z,27.20
2018-08-16T17:00:32.805Z,28.00
2018-08-16T17:03:02.902Z,28.80
2018-08-16T17:05:33.344Z,29.50
2018-08-16T17:08:04.280Z,30.10
2018-08-16T17:10:34.257Z,30.10
2018-08-16T17:13:05.456Z,30.30
2018-08-16T17:15:35.323Z,30.70
2018-08-16T17:18:06.312Z,30.90
2018-08-16T17:20:36.227Z,30.60
2018-08-16T17:23:06.124Z,30.90
2018-08-16T17:25:36.626Z,31.10
2018-08-16T17:28:09.700Z,31.10
2018-08-16T17:30:39.598Z,30.00
2018-08-16T17:33:11.186Z,28.80
2018-08-16T17:35:41.122Z,27.70
2018-08-16T17:38:11.079Z,26.80
2018-08-16T17:40:41.095Z,26.40
2018-08-16T17:43:11.205Z,26.70
2018-08-16T17:45:41.196Z,27.50
2018-08-16T17:48:11.432Z,28.20
2018-08-16T17:50:41.645Z,28.70
2018-08-16T17:53:11.610Z,29.00
2018-08-16T17:55:42.341Z,29.20
2018-08-16T17:58:12.279Z,29.20
2018-08-16T18:00:43.113Z,29.20
2018-08-16T18:03:13.778Z,29.30
2018-08-16T18:05:46.987Z,29.30
2018-08-16T18:08:20.181Z,29.20
2018-08-16T18:10:50.274Z,29.20
2018-08-16T18:13:20.256Z,29.20
2018-08-16T18:15:50.519Z,29.20
2018-08-16T18:18:20.457Z,29.10
2018-08-16T18:20:50.427Z,29.10
2018-08-16T18:23:20.509Z,29.10
2018-08-16T18:25:51.225Z,29.10
2018-08-16T18:28:21.145Z,28.80
2018-08-16T18:30:51.057Z,28.90
2018-08-16T18:33:20.968Z,28.80
2018-08-16T18:35:50.903Z,28.50
2018-08-16T18:38:20.783Z,28.30
2018-08-16T18:40:51.465Z,28.20
2018-08-16T18:43:21.377Z,27.90
2018-08-16T18:45:51.497Z,27.60
2018-08-16T18:48:21.695Z,26.90
2018-08-16T18:50:51.499Z,26.10
2018-08-16T18:53:22.829Z,25.30
2018-08-16T18:55:52.644Z,24.70
2018-08-16T18:58:22.835Z,24.10
2018-08-16T19:00:52.802Z,23.60
2018-08-16T19:03:23.463Z,23.20
2018-08-16T19:05:55.337Z,22.80
2018-08-16T19:08:25.898Z,22.50
2018-08-16T19:10:55.819Z,22.30
2018-08-16T19:13:28.121Z,22.00
2018-08-16T19:15:58.897Z,21.80
2018-08-16T19:18:28.833Z,21.60
2018-08-16T19:20:59.718Z,21.40
2018-08-16T19:23:29.543Z,21.30
2018-08-16T19:25:59.405Z,21.10
2018-08-16T19:28:29.802Z,20.90
2018-08-16T19:30:59.861Z,20.80
2018-08-16T19:33:29.831Z,20.70
2018-08-16T19:36:02.365Z,20.60
2018-08-16T19:38:32.224Z,20.50
2018-08-16T19:41:03.330Z,20.30
2018-08-16T19:43:33.250Z,20.20
2018-08-16T19:46:04.408Z,20.10
2018-08-16T19:48:34.320Z,20.00
2018-08-16T19:51:04.240Z,19.90
2018-08-16T19:53:34.116Z,19.80
2018-08-16T19:56:04.140Z,19.80
2018-08-16T19:58:34.399Z,19.70
2018-08-16T20:01:04.421Z,19.60
2018-08-16T20:03:35.213Z,19.60
2018-08-16T20:06:06.170Z,19.50
2018-08-16T20:08:36.134Z,19.40
2018-08-16T20:11:07.201Z,19.40
2018-08-16T20:13:38.403Z,19.30
2018-08-16T20:16:09.040Z,19.30
2018-08-16T20:18:38.915Z,19.20
2018-08-16T20:21:09.424Z,18.90
2018-08-16T20:23:40.815Z,19.10
2018-08-16T20:26:11.193Z,19.00
2018-08-16T20:28:42.302Z,19.00
2018-08-16T20:31:12.181Z,18.90
2018-08-16T20:33:42.194Z,18.90
2018-08-16T20:36:13.571Z,18.80
2018-08-16T20:38:44.864Z,18.80
2018-08-16T20:41:15.364Z,18.80
2018-08-16T20:43:45.171Z,18.70
2018-08-16T20:46:15.661Z,18.70
2018-08-16T20:48:46.673Z,18.60
2018-08-16T20:51:16.550Z,18.60
2018-08-16T20:53:46.367Z,18.50
2018-08-16T20:56:16.162Z,18.50
2018-08-16T20:58:46.060Z,18.40
2018-08-16T21:01:16.015Z,18.40
2018-08-16T21:03:46.476Z,18.40
2018-08-16T21:06:16.794Z,18.30
2018-08-16T21:08:46.736Z,18.30
2018-08-16T21:11:16.851Z,18.20
2018-08-16T21:13:46.716Z,18.20
2018-08-16T21:16:16.570Z,18.10
2018-08-16T21:18:46.814Z,18.10
2018-08-16T21:21:17.649Z,18.00
2018-08-16T21:23:47.535Z,18.00
2018-08-16T21:26:19.239Z,18.00
2018-08-16T21:28:49.051Z,18.00
2018-08-16T21:31:18.949Z,17.90
2018-08-16T21:33:48.807Z,17.90
2018-08-16T21:36:20.182Z,17.80
2018-08-16T21:38:50.018Z,17.80
2018-08-16T21:41:19.947Z,17.80
2018-08-16T21:43:50.250Z,17.80
2018-08-16T21:46:20.176Z,17.70
2018-08-16T21:48:49.980Z,17.70
2018-08-16T21:51:20.720Z,17.70
2018-08-16T21:53:50.521Z,17.70
2018-08-16T21:56:21.636Z,17.60
2018-08-16T21:58:53.137Z,17.60
2018-08-16T22:01:23.064Z,17.60
2018-08-16T22:03:52.928Z,17.60
2018-08-16T22:06:39.200Z,17.50
2018-08-16T22:09:12.394Z,17.50
2018-08-16T22:11:42.308Z,17.50
2018-08-16T22:14:12.833Z,17.40
2018-08-16T22:16:42.686Z,17.40
2018-08-16T22:19:13.177Z,17.40
2018-08-16T22:21:43.024Z,17.40
2018-08-16T22:24:13.108Z,17.30
2018-08-16T22:26:44.162Z,17.30
2018-08-16T22:29:20.618Z,17.30
2018-08-16T22:31:50.523Z,17.30
2018-08-16T22:34:21.388Z,17.20
2018-08-16T22:36:51.285Z,17.20
2018-08-16T22:39:21.201Z,17.20
2018-08-16T22:41:51.216Z,17.20
2018-08-16T22:44:21.506Z,17.10
2018-08-16T22:46:52.102Z,17.10
2018-08-16T22:49:22.580Z,17.10
2018-08-16T22:51:52.855Z,17.00
2018-08-16T22:54:25.845Z,17.00
2018-08-16T22:56:56.545Z,17.00
2018-08-16T22:59:27.077Z,17.00
2018-08-16T23:01:58.560Z,16.90
2018-08-16T23:04:29.300Z,16.90
2018-08-16T23:06:59.233Z,16.90
2018-08-16T23:09:30.150Z,16.80
2018-08-16T23:12:00.709Z,16.80
2018-08-16T23:14:31.056Z,16.80
2018-08-16T23:17:01.814Z,16.70
2018-08-16T23:19:32.167Z,16.70
2018-08-16T23:22:03.118Z,16.70
2018-08-16T23:24:33.141Z,16.60
2018-08-16T23:27:04.537Z,16.60
2018-08-16T23:29:35.180Z,16.60
2018-08-16T23:32:07.373Z,16.50
2018-08-16T23:34:38.079Z,16.50
2018-08-16T23:37:08.585Z,16.40
2018-08-16T23:39:39.164Z,16.40
2018-08-16T23:42:09.656Z,16.30
2018-08-16T23:44:39.482Z,16.30
2018-08-16T23:47:09.759Z,16.30
2018-08-16T23:49:39.921Z,16.20
2018-08-16T23:52:09.893Z,16.20
2018-08-16T23:54:40.721Z,16.10
2018-08-16T23:57:10.640Z,16.10
2018-08-16T23:59:41.982Z,16.00
